Squantum, Massachusetts
Current Conditions -  °F | °C
As of 1:54 AM on Sunday 26 Oct 2014 (Local Time) from KBOS Reporting Station
Broken Clouds Broken Clouds  
Wind Chill: 56°   Ceiling: 24000
Heat Index: 56°   Visibility: 10mi
Dew Point: 45°   Wind: 13mph
Humidity: 67%   Direction: 250°WSW
Pressure: 29.47"   Gusts: NA
Location:  42.2866°N, 71.0248°W
Report Text: KBOS 260554Z 25011KT 10SM SCT120 BKN240 13/07 A2947 RMK AO2 SLP978 T01330072 10156 20128 56019
Loading
Personal Weather Stations






























Interactive Weather Map
Tropical Storm Tracking
New forecast layout! Learn more

10-Day Weather Forecast

Advertisements
Track Severe Weather on mobile